createdAt,value
2023-02-11T00:01:26.334Z,21.10
2023-02-11T00:03:55.481Z,19.20
2023-02-11T00:06:25.156Z,23.40
2023-02-11T00:08:54.424Z,20.60
2023-02-11T00:11:25.612Z,16.10
2023-02-11T00:13:54.075Z,13.00
2023-02-11T00:16:22.521Z,28.80
2023-02-11T00:18:53.178Z,30.90
2023-02-11T00:21:24.854Z,19.40
2023-02-11T00:23:55.048Z,23.80
2023-02-11T00:26:26.357Z,26.10
2023-02-11T00:28:55.168Z,25.70
2023-02-11T00:31:24.405Z,22.10
2023-02-11T00:33:53.610Z,13.70
2023-02-11T00:36:25.101Z,27.60
2023-02-11T00:38:55.051Z,19.10
2023-02-11T00:41:23.750Z,25.20
2023-02-11T00:43:53.376Z,22.30
2023-02-11T00:46:21.997Z,19.80
2023-02-11T00:48:51.955Z,24.50
2023-02-11T00:51:23.045Z,23.00
2023-02-11T00:53:52.001Z,31.30
2023-02-11T00:56:20.483Z,32.70
2023-02-11T00:58:48.931Z,28.90
2023-02-11T01:01:18.841Z,31.40
2023-02-11T01:03:48.178Z,20.30
2023-02-11T01:06:16.641Z,31.30
2023-02-11T01:08:45.181Z,30.20
2023-02-11T01:11:17.196Z,28.70
2023-02-11T01:13:48.398Z,22.60
2023-02-11T01:16:18.646Z,23.20
2023-02-11T01:18:47.322Z,24.40
2023-02-11T01:21:16.294Z,25.00
2023-02-11T01:23:44.981Z,25.40
2023-02-11T01:26:13.899Z,23.80
2023-02-11T01:28:42.292Z,27.40
2023-02-11T01:31:11.292Z,21.20
2023-02-11T01:33:39.815Z,30.60
2023-02-11T01:36:08.699Z,29.10
2023-02-11T01:38:37.425Z,30.60
2023-02-11T01:41:09.109Z,23.70
2023-02-11T01:43:42.601Z,28.20
2023-02-11T01:46:36.640Z,24.20
2023-02-11T01:49:11.713Z,19.70
2023-02-11T01:51:48.697Z,24.30
2023-02-11T01:54:40.325Z,21.20
2023-02-11T01:57:22.303Z,19.80
2023-02-11T01:59:53.581Z,13.30
2023-02-11T02:02:26.733Z,15.40
2023-02-11T02:05:08.341Z,17.70
2023-02-11T02:07:49.975Z,18.90
2023-02-11T02:10:23.496Z,16.50
2023-02-11T02:12:51.907Z,14.20
2023-02-11T02:15:22.802Z,11.60
2023-02-11T02:17:59.862Z,12.60
2023-02-11T02:20:34.265Z,11.00
2023-02-11T02:23:18.246Z,13.70
2023-02-11T02:26:08.230Z,12.00
2023-02-11T02:28:57.446Z,11.80
2023-02-11T02:32:06.994Z,10.90
2023-02-11T02:34:54.017Z,15.30
2023-02-11T02:37:32.863Z,12.10
2023-02-11T02:40:08.170Z,12.30
2023-02-11T02:42:38.060Z,10.40
2023-02-11T02:45:09.310Z,3.30
2023-02-11T02:47:37.831Z,2.90
2023-02-11T02:50:08.650Z,8.60
2023-02-11T02:52:46.844Z,21.80
2023-02-11T02:55:28.801Z,21.10
2023-02-11T02:58:43.457Z,15.10
2023-02-11T03:01:35.851Z,15.20
2023-02-11T03:04:09.066Z,13.90
2023-02-11T03:07:02.055Z,8.30
2023-02-11T03:09:51.796Z,6.90
2023-02-11T03:12:22.419Z,11.70
2023-02-11T03:14:52.979Z,12.70
2023-02-11T03:17:23.891Z,6.30
2023-02-11T03:19:52.285Z,15.10
2023-02-11T03:22:27.448Z,23.70
2023-02-11T03:24:56.941Z,16.80
2023-02-11T03:27:28.370Z,9.80
2023-02-11T03:30:22.862Z,21.70
2023-02-11T03:33:01.591Z,12.90
2023-02-11T03:35:36.184Z,21.60
2023-02-11T03:38:29.551Z,12.80
2023-02-11T03:43:42.202Z,11.60
2023-02-11T03:46:12.242Z,6.00
2023-02-11T03:48:44.925Z,17.50
2023-02-11T03:51:15.169Z,15.50
2023-02-11T03:53:46.257Z,11.30
2023-02-11T03:56:20.773Z,17.40
2023-02-11T03:58:49.305Z,11.20
2023-02-11T04:01:17.852Z,6.60
2023-02-11T04:03:46.181Z,16.60
2023-02-11T04:06:14.532Z,18.40
2023-02-11T04:08:42.818Z,15.40
2023-02-11T04:11:11.184Z,11.30
2023-02-11T04:13:39.444Z,17.90
2023-02-11T04:16:07.945Z,22.20
2023-02-11T04:18:36.347Z,10.00
2023-02-11T04:21:04.905Z,20.60
2023-02-11T04:23:33.250Z,17.90
2023-02-11T04:26:01.615Z,20.50
2023-02-11T04:28:30.104Z,21.40
2023-02-11T04:30:58.606Z,16.20
2023-02-11T04:33:27.303Z,16.40
2023-02-11T04:35:55.682Z,18.60
2023-02-11T04:38:26.715Z,17.50
2023-02-11T04:40:55.142Z,18.00
2023-02-11T04:43:23.485Z,16.60
2023-02-11T04:45:52.213Z,15.40
2023-02-11T04:48:20.795Z,11.10
2023-02-11T04:50:49.133Z,15.00
2023-02-11T04:53:17.481Z,12.80
2023-02-11T04:55:49.937Z,14.50
2023-02-11T04:58:19.163Z,9.00
2023-02-11T05:00:47.977Z,14.00
2023-02-11T05:03:16.840Z,16.20
2023-02-11T05:05:45.293Z,9.30
2023-02-11T05:08:13.995Z,19.50
2023-02-11T05:10:47.145Z,25.60
2023-02-11T05:13:16.337Z,18.90
2023-02-11T05:15:44.715Z,22.20
2023-02-11T05:18:15.140Z,21.40
2023-02-11T05:20:44.663Z,12.00
2023-02-11T05:23:13.087Z,20.80
2023-02-11T05:25:41.401Z,22.20
2023-02-11T05:28:09.864Z,21.80
2023-02-11T05:30:38.199Z,18.50
2023-02-11T05:33:06.641Z,20.30
2023-02-11T05:35:35.052Z,19.70
2023-02-11T05:38:03.355Z,17.40
2023-02-11T05:40:31.734Z,18.60
2023-02-11T05:43:00.162Z,19.90
2023-02-11T05:45:28.622Z,14.40
2023-02-11T05:47:58.140Z,8.90
2023-02-11T05:50:26.729Z,16.00
2023-02-11T05:52:55.068Z,5.50
2023-02-11T05:55:23.522Z,10.10
2023-02-11T05:57:51.867Z,10.40
2023-02-11T06:00:20.445Z,10.20
2023-02-11T06:02:48.951Z,19.10
2023-02-11T06:05:17.632Z,21.40
2023-02-11T06:07:46.327Z,19.50
2023-02-11T06:10:15.164Z,18.00
2023-02-11T06:12:43.478Z,18.70
2023-02-11T06:15:11.844Z,8.40
2023-02-11T06:17:40.191Z,17.20
2023-02-11T06:20:10.267Z,16.20
2023-02-11T06:22:38.653Z,18.80
2023-02-11T06:25:07.179Z,19.30
2023-02-11T06:27:35.529Z,20.20
2023-02-11T06:30:05.709Z,20.70
2023-02-11T06:32:49.366Z,19.20
2023-02-11T06:35:17.960Z,15.20
2023-02-11T06:37:47.124Z,18.30
2023-02-11T06:40:16.097Z,21.60
2023-02-11T06:42:44.498Z,24.00
2023-02-11T06:45:13.567Z,21.00
2023-02-11T06:47:42.200Z,28.60
2023-02-11T06:50:13.979Z,26.00
2023-02-11T06:52:42.392Z,26.40
2023-02-11T06:55:10.817Z,25.20
2023-02-11T06:57:39.186Z,28.10
2023-02-11T07:00:08.612Z,33.80
2023-02-11T07:02:37.055Z,28.30
2023-02-11T07:05:07.488Z,28.70
2023-02-11T07:07:36.625Z,30.60
2023-02-11T07:10:06.076Z,15.70
2023-02-11T07:12:34.554Z,26.70
2023-02-11T07:15:02.994Z,26.90
2023-02-11T07:17:31.469Z,22.00
2023-02-11T07:19:59.936Z,23.30
2023-02-11T07:22:29.224Z,29.30
2023-02-11T07:24:57.685Z,25.60
2023-02-11T07:27:27.281Z,13.30
2023-02-11T07:29:55.632Z,11.60
2023-02-11T07:32:24.594Z,18.50
2023-02-11T07:34:53.613Z,19.80
2023-02-11T07:37:23.005Z,15.90
2023-02-11T07:39:51.827Z,26.60
2023-02-11T07:42:20.405Z,24.80
2023-02-11T07:44:50.562Z,26.30
2023-02-11T07:47:19.688Z,26.80
2023-02-11T07:49:48.048Z,17.00
2023-02-11T07:52:16.432Z,11.50
2023-02-11T07:54:45.614Z,20.40
2023-02-11T07:57:14.045Z,12.40
2023-02-11T07:59:42.452Z,10.20
2023-02-11T08:02:13.190Z,18.70
2023-02-11T08:04:42.300Z,18.10
2023-02-11T08:07:10.680Z,22.20
2023-02-11T08:09:39.179Z,25.80
2023-02-11T08:12:07.653Z,32.40
2023-02-11T08:14:36.126Z,35.10
2023-02-11T08:17:06.675Z,38.70
2023-02-11T08:19:35.413Z,21.10
2023-02-11T08:22:04.627Z,28.40
2023-02-11T08:24:36.172Z,20.20
2023-02-11T08:27:04.602Z,19.90
2023-02-11T08:29:32.965Z,29.30
2023-02-11T08:32:01.282Z,28.00
2023-02-11T08:34:29.613Z,29.60
2023-02-11T08:36:57.940Z,23.30
2023-02-11T08:39:26.355Z,30.70
2023-02-11T08:41:56.974Z,31.40
2023-02-11T08:44:25.584Z,25.80
2023-02-11T08:46:54.247Z,27.80
2023-02-11T08:49:22.805Z,27.20
2023-02-11T08:51:51.393Z,17.30
2023-02-11T08:54:19.738Z,29.40
2023-02-11T08:56:51.779Z,20.70
2023-02-11T08:59:20.286Z,28.80
2023-02-11T09:01:49.858Z,19.00
2023-02-11T09:04:18.210Z,38.60
2023-02-11T09:06:54.064Z,29.20
2023-02-11T09:09:22.465Z,33.10
2023-02-11T09:11:50.863Z,44.00
2023-02-11T09:14:21.831Z,39.60
2023-02-11T09:16:51.844Z,32.10
2023-02-11T09:19:20.968Z,33.90
2023-02-11T09:21:49.646Z,42.00
2023-02-11T09:24:18.570Z,38.60
2023-02-11T09:26:47.083Z,35.80
2023-02-11T09:29:16.912Z,28.50
2023-02-11T09:31:45.962Z,24.60
2023-02-11T09:34:15.592Z,34.50
2023-02-11T09:36:44.280Z,32.60
2023-02-11T09:39:18.492Z,31.30
2023-02-11T09:42:07.756Z,26.00
2023-02-11T09:44:38.576Z,17.60
2023-02-11T09:47:12.981Z,27.10
2023-02-11T09:50:01.509Z,28.90
2023-02-11T09:52:29.872Z,25.20
2023-02-11T09:55:02.135Z,24.10
2023-02-11T09:57:37.695Z,23.90
2023-02-11T10:00:28.049Z,28.80
2023-02-11T10:03:25.682Z,22.20
2023-02-11T10:06:20.142Z,28.50
2023-02-11T10:09:07.526Z,26.30
2023-02-11T10:11:54.337Z,29.00
2023-02-11T10:15:04.266Z,24.00
2023-02-11T10:17:41.901Z,17.90
2023-02-11T10:20:33.710Z,23.60
2023-02-11T10:23:15.541Z,20.10
2023-02-11T10:25:46.753Z,28.50
2023-02-11T10:28:20.901Z,29.70
2023-02-11T10:30:55.671Z,30.90
2023-02-11T10:33:32.753Z,22.90
2023-02-11T10:36:01.074Z,26.90
2023-02-11T10:38:29.616Z,26.00
2023-02-11T10:40:57.986Z,27.00
2023-02-11T10:43:29.182Z,27.30
2023-02-11T10:45:59.310Z,28.80
2023-02-11T10:48:52.992Z,30.80
2023-02-11T10:51:21.491Z,29.60
2023-02-11T10:54:19.594Z,31.10
2023-02-11T10:56:58.729Z,25.90
2023-02-11T10:59:40.525Z,29.70
2023-02-11T11:02:32.230Z,31.40
2023-02-11T11:05:16.321Z,32.00
2023-02-11T11:07:56.972Z,28.60
2023-02-11T11:10:47.199Z,32.60
2023-02-11T11:13:29.773Z,31.80
2023-02-11T11:16:13.453Z,26.30
2023-02-11T11:18:46.936Z,32.30
2023-02-11T11:21:24.771Z,29.70
2023-02-11T11:23:57.294Z,30.00
2023-02-11T11:26:40.530Z,26.50
2023-02-11T11:29:16.286Z,30.40
2023-02-11T11:31:54.848Z,28.70
2023-02-11T11:34:34.213Z,31.20
2023-02-11T11:37:29.661Z,34.90
2023-02-11T11:39:57.923Z,32.50
2023-02-11T11:42:31.791Z,31.50
2023-02-11T11:45:19.770Z,30.20
2023-02-11T11:48:11.168Z,32.10
2023-02-11T11:50:50.236Z,32.50
2023-02-11T11:53:48.420Z,30.10
2023-02-11T11:56:21.367Z,29.70
2023-02-11T11:58:50.434Z,30.90
2023-02-11T12:01:39.595Z,32.90
2023-02-11T12:04:25.839Z,27.50
2023-02-11T12:07:09.341Z,33.10
2023-02-11T12:09:55.506Z,31.60
2023-02-11T12:12:48.654Z,27.80
2023-02-11T12:15:44.643Z,22.90
2023-02-11T12:18:38.244Z,31.70
2023-02-11T12:23:53.504Z,29.30
2023-02-11T12:26:36.148Z,27.70
2023-02-11T12:29:29.451Z,32.00
2023-02-11T12:32:10.616Z,32.60
2023-02-11T12:34:42.022Z,30.40
2023-02-11T12:37:30.978Z,32.80
2023-02-11T12:40:20.580Z,27.90
2023-02-11T12:43:11.926Z,30.70
2023-02-11T12:46:07.930Z,30.10
2023-02-11T12:49:05.190Z,28.00
2023-02-11T12:51:36.462Z,27.00
2023-02-11T12:54:31.387Z,29.50
2023-02-11T12:57:02.381Z,28.30
2023-02-11T13:00:02.878Z,25.90
2023-02-11T13:02:54.638Z,29.00
2023-02-11T13:06:07.590Z,25.40
2023-02-11T13:08:40.626Z,26.90
2023-02-11T13:11:15.182Z,25.50
2023-02-11T13:13:46.221Z,26.80
2023-02-11T13:16:31.077Z,25.20
2023-02-11T13:19:23.763Z,25.80
2023-02-11T13:22:07.061Z,22.40
2023-02-11T13:24:48.098Z,24.90
2023-02-11T13:27:19.383Z,23.00
2023-02-11T13:30:21.899Z,26.50
2023-02-11T13:32:56.481Z,20.50
2023-02-11T13:35:33.039Z,28.60
2023-02-11T13:38:06.134Z,29.90
2023-02-11T13:43:21.804Z,32.40
2023-02-11T13:48:24.236Z,28.70
2023-02-11T13:50:57.515Z,29.80
2023-02-11T13:53:27.597Z,26.40
2023-02-11T13:56:12.375Z,28.00
2023-02-11T13:58:48.444Z,31.20
2023-02-11T14:01:42.649Z,32.80
2023-02-11T14:04:44.462Z,33.10
2023-02-11T14:07:50.980Z,29.80
2023-02-11T14:10:41.177Z,27.90
2023-02-11T14:13:30.229Z,29.60
2023-02-11T14:16:13.656Z,27.80
2023-02-11T14:21:19.372Z,32.40
2023-02-11T14:23:48.043Z,32.50
2023-02-11T14:26:22.198Z,25.20
2023-02-11T14:28:59.519Z,29.50
2023-02-11T14:31:36.396Z,25.90
2023-02-11T14:34:23.243Z,27.10
2023-02-11T14:37:02.773Z,30.70
2023-02-11T14:40:14.086Z,29.10
2023-02-11T14:42:42.624Z,27.80
2023-02-11T14:45:18.893Z,27.60
2023-02-11T14:47:56.272Z,29.40
2023-02-11T14:50:32.155Z,24.20
2023-02-11T14:53:02.781Z,27.30
2023-02-11T14:55:37.053Z,30.00
2023-02-11T14:58:28.325Z,27.60
2023-02-11T15:01:12.232Z,26.30
2023-02-11T15:03:43.130Z,29.10
2023-02-11T15:06:19.336Z,28.70
2023-02-11T15:08:55.438Z,28.90
2023-02-11T15:11:25.755Z,31.00
2023-02-11T15:13:57.115Z,27.90
2023-02-11T15:16:28.632Z,29.10
2023-02-11T15:19:01.684Z,28.40
2023-02-11T15:21:32.815Z,25.50
2023-02-11T15:24:20.057Z,25.80
2023-02-11T15:27:08.620Z,26.80
2023-02-11T15:29:50.801Z,29.60
2023-02-11T15:32:22.035Z,27.90
2023-02-11T15:34:52.946Z,29.30
2023-02-11T15:37:32.661Z,29.90
2023-02-11T15:40:21.337Z,30.30
2023-02-11T15:43:02.875Z,31.70
2023-02-11T15:45:41.598Z,30.50
2023-02-11T15:48:16.036Z,35.50
2023-02-11T15:50:52.915Z,33.90
2023-02-11T15:53:31.543Z,32.40
2023-02-11T15:56:19.433Z,37.80
2023-02-11T15:58:49.845Z,35.80
2023-02-11T16:01:18.405Z,36.40
2023-02-11T16:03:50.498Z,33.40
2023-02-11T16:06:26.578Z,33.50
2023-02-11T16:09:05.506Z,32.30
2023-02-11T16:11:38.519Z,33.70
2023-02-11T16:16:57.755Z,34.50
2023-02-11T16:19:27.745Z,38.60
2023-02-11T16:21:58.869Z,41.30
2023-02-11T16:24:35.369Z,46.30
2023-02-11T16:27:07.939Z,45.20
2023-02-11T16:29:37.969Z,43.40
2023-02-11T16:32:09.985Z,41.40
2023-02-11T16:34:41.110Z,38.60
2023-02-11T16:37:09.789Z,42.80
2023-02-11T16:39:38.241Z,42.00
2023-02-11T16:42:09.407Z,41.80
2023-02-11T16:44:38.268Z,40.10
2023-02-11T16:47:23.840Z,38.70
2023-02-11T16:49:52.623Z,37.80
2023-02-11T16:52:21.960Z,35.00
2023-02-11T16:54:50.294Z,32.50
2023-02-11T16:57:24.369Z,37.10
2023-02-11T16:59:52.945Z,35.40
2023-02-11T17:02:24.156Z,39.40
2023-02-11T17:04:54.181Z,37.60
2023-02-11T17:07:22.670Z,35.30
2023-02-11T17:09:52.318Z,33.50
2023-02-11T17:12:21.677Z,31.90
2023-02-11T17:14:50.094Z,32.60
2023-02-11T17:17:22.861Z,33.60
2023-02-11T17:22:19.884Z,38.70
2023-02-11T17:24:48.177Z,40.80
2023-02-11T17:27:17.379Z,40.40
2023-02-11T17:29:45.838Z,40.80
2023-02-11T17:32:14.267Z,43.70
2023-02-11T17:34:42.678Z,46.40
2023-02-11T17:37:11.121Z,44.10
2023-02-11T17:39:40.600Z,43.60
2023-02-11T17:42:08.979Z,48.90
2023-02-11T17:44:38.104Z,22.10
2023-02-11T17:47:06.477Z,32.70
2023-02-11T17:49:34.864Z,32.20
2023-02-11T17:52:03.213Z,34.80
2023-02-11T17:54:31.516Z,37.10
2023-02-11T17:56:59.850Z,21.00
2023-02-11T17:59:31.827Z,23.10
2023-02-11T18:02:00.113Z,40.70
2023-02-11T18:04:28.725Z,35.50
2023-02-11T18:06:58.028Z,35.60
2023-02-11T18:09:26.787Z,31.40
2023-02-11T18:11:55.315Z,33.30
2023-02-11T18:14:23.671Z,30.40
2023-02-11T18:16:52.697Z,28.90
2023-02-11T18:19:21.190Z,36.90
2023-02-11T18:21:51.093Z,38.00
2023-02-11T18:24:19.530Z,40.60
2023-02-11T18:26:47.944Z,51.60
2023-02-11T18:29:16.319Z,64.90
2023-02-11T18:31:44.755Z,48.70
2023-02-11T18:34:13.426Z,46.90
2023-02-11T18:36:41.865Z,40.30
2023-02-11T18:39:10.250Z,40.90
2023-02-11T18:41:40.873Z,41.30
2023-02-11T18:44:10.999Z,40.50
2023-02-11T18:46:39.338Z,39.80
2023-02-11T18:49:07.730Z,43.40
2023-02-11T18:51:36.041Z,34.20
2023-02-11T18:54:04.614Z,31.90
2023-02-11T18:56:33.035Z,43.60
2023-02-11T18:59:01.542Z,38.50
2023-02-11T19:01:32.003Z,41.00
2023-02-11T19:04:03.619Z,36.70
2023-02-11T19:06:36.451Z,35.50
2023-02-11T19:09:08.038Z,38.60
2023-02-11T19:11:49.109Z,40.60
2023-02-11T19:14:22.797Z,38.20
2023-02-11T19:16:53.800Z,39.10
2023-02-11T19:19:24.152Z,42.20
2023-02-11T19:21:52.658Z,40.20
2023-02-11T19:24:23.079Z,38.40
2023-02-11T19:26:53.239Z,45.00
2023-02-11T19:29:21.559Z,38.70
2023-02-11T19:31:50.169Z,39.30
2023-02-11T19:34:22.277Z,38.00
2023-02-11T19:36:51.310Z,41.50
2023-02-11T19:39:19.702Z,40.20
2023-02-11T19:41:48.123Z,37.30
2023-02-11T19:44:16.842Z,49.30
2023-02-11T19:46:46.204Z,43.30
2023-02-11T19:49:23.202Z,44.50
2023-02-11T19:51:55.562Z,47.70
2023-02-11T19:54:26.466Z,44.30
2023-02-11T19:56:55.227Z,45.80
2023-02-11T19:59:24.031Z,43.60
2023-02-11T20:01:54.051Z,44.90
2023-02-11T20:04:24.310Z,46.10
2023-02-11T20:06:52.708Z,44.10
2023-02-11T20:09:21.820Z,43.80
2023-02-11T20:11:50.294Z,44.40
2023-02-11T20:14:19.314Z,41.00
2023-02-11T20:16:49.733Z,42.60
2023-02-11T20:19:21.918Z,42.20
2023-02-11T20:21:53.790Z,48.80
2023-02-11T20:24:23.120Z,48.20
2023-02-11T20:26:55.768Z,47.10
2023-02-11T20:31:54.632Z,42.40
2023-02-11T20:34:23.435Z,43.70
2023-02-11T20:36:52.407Z,48.20
2023-02-11T20:39:22.952Z,47.90
2023-02-11T20:41:51.690Z,44.40
2023-02-11T20:44:22.497Z,46.70
2023-02-11T20:46:51.712Z,47.60
2023-02-11T20:49:23.174Z,48.30
2023-02-11T20:51:53.971Z,51.20
2023-02-11T20:54:23.972Z,51.30
2023-02-11T20:56:54.101Z,55.70
2023-02-11T20:59:23.107Z,48.90
2023-02-11T21:01:55.401Z,54.90
2023-02-11T21:04:29.828Z,53.60
2023-02-11T21:07:01.344Z,51.90
2023-02-11T21:09:31.623Z,48.00
2023-02-11T21:12:00.619Z,48.70
2023-02-11T21:14:29.566Z,52.40
2023-02-11T21:16:58.280Z,53.70
2023-02-11T21:19:27.004Z,55.70
2023-02-11T21:21:57.393Z,56.10
2023-02-11T21:24:25.870Z,55.20
2023-02-11T21:26:54.876Z,56.60
2023-02-11T21:29:23.250Z,53.60
2023-02-11T21:31:51.706Z,54.70
2023-02-11T21:34:20.902Z,53.40
2023-02-11T21:36:51.305Z,55.90
2023-02-11T21:39:20.542Z,54.20
2023-02-11T21:41:49.074Z,53.60
2023-02-11T21:44:17.925Z,56.30
2023-02-11T21:46:46.327Z,54.50
2023-02-11T21:49:14.760Z,56.40
2023-02-11T21:51:43.079Z,58.90
2023-02-11T21:54:12.002Z,60.40
2023-02-11T21:56:40.825Z,56.00
2023-02-11T21:59:13.539Z,52.30
2023-02-11T22:01:41.891Z,52.10
2023-02-11T22:04:10.230Z,50.30
2023-02-11T22:06:39.241Z,55.00
2023-02-11T22:09:09.502Z,59.20
2023-02-11T22:11:38.148Z,57.90
2023-02-11T22:14:06.942Z,57.00
2023-02-11T22:16:35.401Z,56.00
2023-02-11T22:19:03.968Z,58.20
2023-02-11T22:21:32.259Z,56.10
2023-02-11T22:24:00.678Z,58.40
2023-02-11T22:26:29.180Z,58.80
2023-02-11T22:28:57.591Z,62.40
2023-02-11T22:31:32.037Z,62.50
2023-02-11T22:34:03.672Z,61.20
2023-02-11T22:36:37.513Z,60.90
2023-02-11T22:39:09.622Z,60.70
2023-02-11T22:41:40.038Z,59.10
2023-02-11T22:44:09.410Z,60.10
2023-02-11T22:46:38.100Z,67.20
2023-02-11T22:49:07.517Z,62.10
2023-02-11T22:51:35.900Z,56.30
2023-02-11T22:54:06.315Z,60.90
2023-02-11T22:56:35.426Z,67.80
2023-02-11T22:59:07.474Z,70.00
2023-02-11T23:01:35.899Z,61.00
2023-02-11T23:04:06.834Z,54.20
2023-02-11T23:06:35.574Z,55.10
2023-02-11T23:09:05.964Z,51.40
2023-02-11T23:11:35.571Z,59.50
2023-02-11T23:14:04.204Z,56.10
2023-02-11T23:16:34.553Z,53.20
2023-02-11T23:19:06.876Z,52.70
2023-02-11T23:21:38.013Z,51.60
2023-02-11T23:24:11.299Z,48.30
2023-02-11T23:26:40.882Z,48.30
2023-02-11T23:29:10.065Z,50.50
2023-02-11T23:31:40.987Z,54.50
2023-02-11T23:34:09.666Z,55.50
2023-02-11T23:36:38.151Z,57.90
2023-02-11T23:39:06.686Z,50.90
2023-02-11T23:41:34.973Z,53.40
2023-02-11T23:44:03.327Z,45.80
2023-02-11T23:46:31.607Z,47.90
2023-02-11T23:49:00.114Z,48.20
2023-02-11T23:51:28.438Z,49.50
2023-02-11T23:53:56.883Z,46.80
2023-02-11T23:56:27.509Z,52.60
2023-02-11T23:58:58.278Z,48.70
